sensor_id;sensor_type;location;lat;lon;timestamp;P1;durP1;ratioP1;P2;durP2;ratioP2
45072;SDS011;30836;48.906;9.140;2022-08-11T00:00:13;22;;;17;;
45072;SDS011;30836;48.906;9.140;2022-08-11T00:01:20;21;;;16;;
45072;SDS011;30836;48.906;9.140;2022-08-11T00:02:33;22;;;17;;
45072;SDS011;30836;48.906;9.140;2022-08-11T00:03:34;22;;;17;;
45072;SDS011;30836;48.906;9.140;2022-08-11T00:04:36;26;;;20;;
45072;SDS011;30836;48.906;9.140;2022-08-11T00:05:52;22;;;17;;
45072;SDS011;30836;48.906;9.140;2022-08-11T00:06:48;40;;;34;;
45072;SDS011;30836;48.906;9.140;2022-08-11T00:08:04;69;;;58;;
45072;SDS011;30836;48.906;9.140;2022-08-11T00:09:11;57;;;48;;
45072;SDS011;30836;48.906;9.140;2022-08-11T00:10:14;53;;;45;;
45072;SDS011;30836;48.906;9.140;2022-08-11T00:11:16;47;;;40;;
45072;SDS011;30836;48.906;9.140;2022-08-11T00:12:17;50;;;42;;
45072;SDS011;30836;48.906;9.140;2022-08-11T00:13:19;49;;;41;;
45072;SDS011;30836;48.906;9.140;2022-08-11T00:14:25;45;;;38;;
45072;SDS011;30836;48.906;9.140;2022-08-11T00:16:38;40;;;33;;
45072;SDS011;30836;48.906;9.140;2022-08-11T00:17:40;37;;;31;;
45072;SDS011;30836;48.906;9.140;2022-08-11T00:18:49;36;;;30;;
45072;SDS011;30836;48.906;9.140;2022-08-11T00:19:50;38;;;31;;
45072;SDS011;30836;48.906;9.140;2022-08-11T00:20:57;35;;;29;;
45072;SDS011;30836;48.906;9.140;2022-08-11T00:21:58;34;;;28;;
45072;SDS011;30836;48.906;9.140;2022-08-11T00:23:08;30;;;25;;
45072;SDS011;30836;48.906;9.140;2022-08-11T00:24:09;33;;;27;;
45072;SDS011;30836;48.906;9.140;2022-08-11T00:25:15;32;;;26;;
45072;SDS011;30836;48.906;9.140;2022-08-11T00:26:17;39;;;32;;
45072;SDS011;30836;48.906;9.140;2022-08-11T00:27:18;38;;;31;;
45072;SDS011;30836;48.906;9.140;2022-08-11T00:29:26;44;;;36;;
45072;SDS011;30836;48.906;9.140;2022-08-11T00:31:43;43;;;35;;
45072;SDS011;30836;48.906;9.140;2022-08-11T00:32:54;43;;;35;;
45072;SDS011;30836;48.906;9.140;2022-08-11T00:33:58;40;;;32;;
45072;SDS011;30836;48.906;9.140;2022-08-11T00:35:00;39;;;31;;
45072;SDS011;30836;48.906;9.140;2022-08-11T00:36:02;38;;;30;;
45072;SDS011;30836;48.906;9.140;2022-08-11T00:37:10;36;;;29;;
45072;SDS011;30836;48.906;9.140;2022-08-11T00:38:11;37;;;30;;
45072;SDS011;30836;48.906;9.140;2022-08-11T00:39:12;36;;;29;;
45072;SDS011;30836;48.906;9.140;2022-08-11T00:40:33;33;;;26;;
45072;SDS011;30836;48.906;9.140;2022-08-11T00:41:40;35;;;28;;
45072;SDS011;30836;48.906;9.140;2022-08-11T00:44:00;33;;;26;;
45072;SDS011;30836;48.906;9.140;2022-08-11T00:45:08;32;;;25;;
45072;SDS011;30836;48.906;9.140;2022-08-11T00:48:39;32;;;25;;
45072;SDS011;30836;48.906;9.140;2022-08-11T00:49:51;29;;;23;;
45072;SDS011;30836;48.906;9.140;2022-08-11T01:08:07;28;;;22;;
45072;SDS011;30836;48.906;9.140;2022-08-11T01:10:33;29;;;23;;
45072;SDS011;30836;48.906;9.140;2022-08-11T01:32:00;32;;;25;;
45072;SDS011;30836;48.906;9.140;2022-08-11T01:47:48;33;;;26;;
45072;SDS011;30836;48.906;9.140;2022-08-11T01:50:08;29;;;23;;
45072;SDS011;30836;48.906;9.140;2022-08-11T01:52:29;33;;;26;;
45072;SDS011;30836;48.906;9.140;2022-08-11T01:58:35;32;;;25;;
45072;SDS011;30836;48.906;9.140;2022-08-11T02:00:29;33;;;26;;
45072;SDS011;30836;48.906;9.140;2022-08-11T02:04:19;33;;;26;;
45072;SDS011;30836;48.906;9.140;2022-08-11T02:09:46;33;;;26;;
45072;SDS011;30836;48.906;9.140;2022-08-11T02:11:00;32;;;25;;
45072;SDS011;30836;48.906;9.140;2022-08-11T02:14:30;33;;;26;;
45072;SDS011;30836;48.906;9.140;2022-08-11T02:15:37;32;;;25;;
45072;SDS011;30836;48.906;9.140;2022-08-11T02:20:20;32;;;25;;
45072;SDS011;30836;48.906;9.140;2022-08-11T02:21:34;31;;;24;;
45072;SDS011;30836;48.906;9.140;2022-08-11T02:23:53;33;;;26;;
45072;SDS011;30836;48.906;9.140;2022-08-11T02:25:06;32;;;25;;
45072;SDS011;30836;48.906;9.140;2022-08-11T02:27:22;31;;;24;;
45072;SDS011;30836;48.906;9.140;2022-08-11T02:29:42;29;;;23;;
45072;SDS011;30836;48.906;9.140;2022-08-11T02:32:06;26;;;20;;
45072;SDS011;30836;48.906;9.140;2022-08-11T02:33:15;26;;;20;;
45072;SDS011;30836;48.906;9.140;2022-08-11T02:35:34;26;;;20;;
45072;SDS011;30836;48.906;9.140;2022-08-11T02:36:44;26;;;20;;
45072;SDS011;30836;48.906;9.140;2022-08-11T02:39:07;29;;;23;;
45072;SDS011;30836;48.906;9.140;2022-08-11T02:40:19;33;;;26;;
45072;SDS011;30836;48.906;9.140;2022-08-11T02:43:51;29;;;23;;
45072;SDS011;30836;48.906;9.140;2022-08-11T02:49:49;29;;;23;;
45072;SDS011;30836;48.906;9.140;2022-08-11T02:53:21;28;;;22;;
45072;SDS011;30836;48.906;9.140;2022-08-11T02:57:53;22;;;17;;
45072;SDS011;30836;48.906;9.140;2022-08-11T03:01:14;28;;;22;;
45072;SDS011;30836;48.906;9.140;2022-08-11T03:03:34;24;;;19;;
45072;SDS011;30836;48.906;9.140;2022-08-11T03:15:02;29;;;23;;
45072;SDS011;30836;48.906;9.140;2022-08-11T03:19:45;24;;;19;;
45072;SDS011;30836;48.906;9.140;2022-08-11T03:20:55;22;;;17;;
45072;SDS011;30836;48.906;9.140;2022-08-11T03:23:17;22;;;17;;
45072;SDS011;30836;48.906;9.140;2022-08-11T03:25:31;23;;;18;;
45072;SDS011;30836;48.906;9.140;2022-08-11T03:26:42;24;;;19;;
45072;SDS011;30836;48.906;9.140;2022-08-11T03:29:00;22;;;17;;
45072;SDS011;30836;48.906;9.140;2022-08-11T03:33:24;22;;;17;;
45072;SDS011;30836;48.906;9.140;2022-08-11T03:34:29;22;;;17;;
45072;SDS011;30836;48.906;9.140;2022-08-11T03:35:36;24;;;19;;
45072;SDS011;30836;48.906;9.140;2022-08-11T03:37:59;26;;;20;;
45072;SDS011;30836;48.906;9.140;2022-08-11T03:40:13;25;;;19;;
45072;SDS011;30836;48.906;9.140;2022-08-11T03:43:45;26;;;20;;
45072;SDS011;30836;48.906;9.140;2022-08-11T03:47:17;26;;;20;;
45072;SDS011;30836;48.906;9.140;2022-08-11T03:48:22;26;;;20;;
45072;SDS011;30836;48.906;9.140;2022-08-11T03:51:52;26;;;20;;
45072;SDS011;30836;48.906;9.140;2022-08-11T03:55:18;26;;;20;;
45072;SDS011;30836;48.906;9.140;2022-08-11T03:56:34;26;;;20;;
45072;SDS011;30836;48.906;9.140;2022-08-11T04:09:03;33;;;26;;
45072;SDS011;30836;48.906;9.140;2022-08-11T04:34:31;33;;;26;;
45072;SDS011;30836;48.906;9.140;2022-08-11T04:36:46;28;;;22;;
45072;SDS011;30836;48.906;9.140;2022-08-11T04:46:53;29;;;23;;
45072;SDS011;30836;48.906;9.140;2022-08-11T04:56:05;26;;;20;;
45072;SDS011;30836;48.906;9.140;2022-08-11T05:00:29;25;;;19;;
45072;SDS011;30836;48.906;9.140;2022-08-11T05:06:10;24;;;19;;
45072;SDS011;30836;48.906;9.140;2022-08-11T05:12:08;28;;;22;;
45072;SDS011;30836;48.906;9.140;2022-08-11T05:13:03;28;;;22;;
45072;SDS011;30836;48.906;9.140;2022-08-11T05:15:17;29;;;23;;
45072;SDS011;30836;48.906;9.140;2022-08-11T05:16:25;28;;;22;;
45072;SDS011;30836;48.906;9.140;2022-08-11T05:18:14;27;;;21;;
45072;SDS011;30836;48.906;9.140;2022-08-11T05:18:54;32;;;25;;
45072;SDS011;30836;48.906;9.140;2022-08-11T05:19:51;27;;;21;;
45072;SDS011;30836;48.906;9.140;2022-08-11T05:20:54;28;;;22;;
45072;SDS011;30836;48.906;9.140;2022-08-11T05:21:56;33;;;26;;
45072;SDS011;30836;48.906;9.140;2022-08-11T05:23:04;33;;;26;;
45072;SDS011;30836;48.906;9.140;2022-08-11T05:24:12;29;;;23;;
45072;SDS011;30836;48.906;9.140;2022-08-11T05:25:30;32;;;25;;
45072;SDS011;30836;48.906;9.140;2022-08-11T05:26:27;33;;;26;;
45072;SDS011;30836;48.906;9.140;2022-08-11T05:30:57;29;;;23;;
45072;SDS011;30836;48.906;9.140;2022-08-11T05:31:59;29;;;23;;
45072;SDS011;30836;48.906;9.140;2022-08-11T05:33:09;29;;;23;;
45072;SDS011;30836;48.906;9.140;2022-08-11T05:34:21;26;;;20;;
45072;SDS011;30836;48.906;9.140;2022-08-11T05:35:28;28;;;22;;
45072;SDS011;30836;48.906;9.140;2022-08-11T05:37:43;23;;;18;;
45072;SDS011;30836;48.906;9.140;2022-08-11T05:40:00;28;;;22;;
45072;SDS011;30836;48.906;9.140;2022-08-11T05:41:05;26;;;20;;
45072;SDS011;30836;48.906;9.140;2022-08-11T05:42:07;26;;;20;;
45072;SDS011;30836;48.906;9.140;2022-08-11T05:43:12;28;;;22;;
45072;SDS011;30836;48.906;9.140;2022-08-11T05:44:18;29;;;23;;
45072;SDS011;30836;48.906;9.140;2022-08-11T05:45:21;29;;;23;;
45072;SDS011;30836;48.906;9.140;2022-08-11T05:46:23;33;;;26;;
45072;SDS011;30836;48.906;9.140;2022-08-11T05:47:25;28;;;22;;
45072;SDS011;30836;48.906;9.140;2022-08-11T05:48:32;28;;;22;;
45072;SDS011;30836;48.906;9.140;2022-08-11T05:49:33;27;;;21;;
45072;SDS011;30836;48.906;9.140;2022-08-11T05:50:34;28;;;22;;
45072;SDS011;30836;48.906;9.140;2022-08-11T05:51:38;28;;;22;;
45072;SDS011;30836;48.906;9.140;2022-08-11T05:52:38;26;;;20;;
45072;SDS011;30836;48.906;9.140;2022-08-11T05:53:52;26;;;20;;
45072;SDS011;30836;48.906;9.140;2022-08-11T05:55:02;26;;;20;;
45072;SDS011;30836;48.906;9.140;2022-08-11T05:56:07;28;;;22;;
45072;SDS011;30836;48.906;9.140;2022-08-11T05:57:08;28;;;22;;
45072;SDS011;30836;48.906;9.140;2022-08-11T05:58:14;27;;;21;;
45072;SDS011;30836;48.906;9.140;2022-08-11T05:59:17;32;;;25;;
45072;SDS011;30836;48.906;9.140;2022-08-11T06:00:18;26;;;20;;
45072;SDS011;30836;48.906;9.140;2022-08-11T06:01:26;26;;;20;;
45072;SDS011;30836;48.906;9.140;2022-08-11T06:02:27;28;;;22;;
45072;SDS011;30836;48.906;9.140;2022-08-11T06:03:29;32;;;25;;
45072;SDS011;30836;48.906;9.140;2022-08-11T06:04:32;28;;;22;;
45072;SDS011;30836;48.906;9.140;2022-08-11T06:05:35;27;;;21;;
45072;SDS011;30836;48.906;9.140;2022-08-11T06:06:36;29;;;23;;
45072;SDS011;30836;48.906;9.140;2022-08-11T06:07:37;33;;;26;;
45072;SDS011;30836;48.906;9.140;2022-08-11T06:08:38;32;;;-1;;
45072;SDS011;30836;48.906;9.140;2022-08-11T06:09:47;29;;;23;;
45072;SDS011;30836;48.906;9.140;2022-08-11T06:10:48;32;;;25;;
45072;SDS011;30836;48.906;9.140;2022-08-11T06:11:49;28;;;22;;
45072;SDS011;30836;48.906;9.140;2022-08-11T06:12:52;29;;;23;;
45072;SDS011;30836;48.906;9.140;2022-08-11T06:13:54;27;;;21;;
45072;SDS011;30836;48.906;9.140;2022-08-11T06:15:10;29;;;23;;
45072;SDS011;30836;48.906;9.140;2022-08-11T06:16:12;29;;;23;;
45072;SDS011;30836;48.906;9.140;2022-08-11T06:17:13;32;;;25;;
45072;SDS011;30836;48.906;9.140;2022-08-11T06:18:19;32;;;25;;
45072;SDS011;30836;48.906;9.140;2022-08-11T06:19:21;32;;;25;;
45072;SDS011;30836;48.906;9.140;2022-08-11T06:20:22;29;;;23;;
45072;SDS011;30836;48.906;9.140;2022-08-11T06:21:34;28;;;22;;
45072;SDS011;30836;48.906;9.140;2022-08-11T06:22:36;27;;;21;;
45072;SDS011;30836;48.906;9.140;2022-08-11T06:23:37;29;;;23;;
45072;SDS011;30836;48.906;9.140;2022-08-11T06:25:52;29;;;23;;
45072;SDS011;30836;48.906;9.140;2022-08-11T06:26:08;33;;;26;;
45072;SDS011;30836;48.906;9.140;2022-08-11T06:27:08;32;;;25;;
45072;SDS011;30836;48.906;9.140;2022-08-11T06:28:09;30;;;24;;
45072;SDS011;30836;48.906;9.140;2022-08-11T06:29:10;33;;;26;;
45072;SDS011;30836;48.906;9.140;2022-08-11T06:30:12;32;;;25;;
45072;SDS011;30836;48.906;9.140;2022-08-11T06:31:17;32;;;25;;
45072;SDS011;30836;48.906;9.140;2022-08-11T06:32:20;34;;;27;;
45072;SDS011;30836;48.906;9.140;2022-08-11T06:38:13;33;;;26;;
45072;SDS011;30836;48.906;9.140;2022-08-11T06:41:39;33;;;26;;
45072;SDS011;30836;48.906;9.140;2022-08-11T06:42:49;34;;;27;;
45072;SDS011;30836;48.906;9.140;2022-08-11T06:46:08;35;;;28;;
45072;SDS011;30836;48.906;9.140;2022-08-11T06:46:27;33;;;26;;
45072;SDS011;30836;48.906;9.140;2022-08-11T06:47:28;35;;;28;;
45072;SDS011;30836;48.906;9.140;2022-08-11T06:48:31;34;;;27;;
45072;SDS011;30836;48.906;9.140;2022-08-11T06:49:37;32;;;25;;
45072;SDS011;30836;48.906;9.140;2022-08-11T06:50:38;29;;;23;;
45072;SDS011;30836;48.906;9.140;2022-08-11T06:51:39;29;;;23;;
45072;SDS011;30836;48.906;9.140;2022-08-11T06:52:40;28;;;22;;
45072;SDS011;30836;48.906;9.140;2022-08-11T06:52:52;29;;;23;;
45072;SDS011;30836;48.906;9.140;2022-08-11T06:53:55;33;;;26;;
45072;SDS011;30836;48.906;9.140;2022-08-11T06:55:00;39;;;31;;
45072;SDS011;30836;48.906;9.140;2022-08-11T06:56:06;39;;;31;;
45072;SDS011;30836;48.906;9.140;2022-08-11T06:57:12;36;;;29;;
45072;SDS011;30836;48.906;9.140;2022-08-11T06:58:16;34;;;27;;
45072;SDS011;30836;48.906;9.140;2022-08-11T06:59:18;26;;;20;;
45072;SDS011;30836;48.906;9.140;2022-08-11T07:00:20;28;;;22;;
45072;SDS011;30836;48.906;9.140;2022-08-11T07:02:31;29;;;23;;
45072;SDS011;30836;48.906;9.140;2022-08-11T07:03:41;35;;;28;;
45072;SDS011;30836;48.906;9.140;2022-08-11T07:04:50;40;;;32;;
45072;SDS011;30836;48.906;9.140;2022-08-11T07:05:57;40;;;32;;
45072;SDS011;30836;48.906;9.140;2022-08-11T07:07:10;29;;;23;;
45072;SDS011;30836;48.906;9.140;2022-08-11T07:12:54;38;;;30;;
45072;SDS011;30836;48.906;9.140;2022-08-11T07:14:00;36;;;29;;
45072;SDS011;30836;48.906;9.140;2022-08-11T07:15:02;36;;;29;;
45072;SDS011;30836;48.906;9.140;2022-08-11T07:16:06;39;;;31;;
45072;SDS011;30836;48.906;9.140;2022-08-11T07:17:15;36;;;29;;
45072;SDS011;30836;48.906;9.140;2022-08-11T07:19:27;39;;;31;;
45072;SDS011;30836;48.906;9.140;2022-08-11T07:20:29;40;;;32;;
45072;SDS011;30836;48.906;9.140;2022-08-11T07:21:33;41;;;33;;
45072;SDS011;30836;48.906;9.140;2022-08-11T07:22:35;42;;;34;;
45072;SDS011;30836;48.906;9.140;2022-08-11T07:23:36;42;;;34;;
45072;SDS011;30836;48.906;9.140;2022-08-11T07:24:46;39;;;31;;
45072;SDS011;30836;48.906;9.140;2022-08-11T07:25:51;36;;;29;;
45072;SDS011;30836;48.906;9.140;2022-08-11T07:26:54;38;;;30;;
45072;SDS011;30836;48.906;9.140;2022-08-11T07:28:04;40;;;32;;
45072;SDS011;30836;48.906;9.140;2022-08-11T07:29:06;42;;;34;;
45072;SDS011;30836;48.906;9.140;2022-08-11T07:30:09;44;;;35;;
45072;SDS011;30836;48.906;9.140;2022-08-11T07:31:15;46;;;37;;
45072;SDS011;30836;48.906;9.140;2022-08-11T07:32:26;46;;;37;;
45072;SDS011;30836;48.906;9.140;2022-08-11T07:33:34;42;;;34;;
45072;SDS011;30836;48.906;9.140;2022-08-11T07:34:39;40;;;32;;
45072;SDS011;30836;48.906;9.140;2022-08-11T07:35:47;41;;;33;;
45072;SDS011;30836;48.906;9.140;2022-08-11T07:36:54;42;;;34;;
45072;SDS011;30836;48.906;9.140;2022-08-11T07:37:58;48;;;39;;
45072;SDS011;30836;48.906;9.140;2022-08-11T07:39:01;47;;;38;;
45072;SDS011;30836;48.906;9.140;2022-08-11T07:40:02;49;;;40;;
45072;SDS011;30836;48.906;9.140;2022-08-11T07:41:03;51;;;41;;
45072;SDS011;30836;48.906;9.140;2022-08-11T07:42:10;48;;;39;;
45072;SDS011;30836;48.906;9.140;2022-08-11T07:43:11;47;;;38;;
45072;SDS011;30836;48.906;9.140;2022-08-11T07:44:14;48;;;39;;
45072;SDS011;30836;48.906;9.140;2022-08-11T07:45:15;51;;;41;;
45072;SDS011;30836;48.906;9.140;2022-08-11T07:46:17;51;;;41;;
45072;SDS011;30836;48.906;9.140;2022-08-11T07:47:19;51;;;41;;
45072;SDS011;30836;48.906;9.140;2022-08-11T07:48:21;51;;;41;;
45072;SDS011;30836;48.906;9.140;2022-08-11T07:49:21;51;;;41;;
45072;SDS011;30836;48.906;9.140;2022-08-11T07:50:23;54;;;44;;
45072;SDS011;30836;48.906;9.140;2022-08-11T07:51:23;54;;;44;;
45072;SDS011;30836;48.906;9.140;2022-08-11T07:52:28;56;;;45;;
45072;SDS011;30836;48.906;9.140;2022-08-11T07:53:30;54;;;44;;
45072;SDS011;30836;48.906;9.140;2022-08-11T07:54:34;51;;;41;;
45072;SDS011;30836;48.906;9.140;2022-08-11T07:55:36;52;;;42;;
45072;SDS011;30836;48.906;9.140;2022-08-11T07:56:37;53;;;43;;
45072;SDS011;30836;48.906;9.140;2022-08-11T07:57:49;53;;;43;;
45072;SDS011;30836;48.906;9.140;2022-08-11T07:58:49;49;;;40;;
45072;SDS011;30836;48.906;9.140;2022-08-11T07:59:50;49;;;40;;
45072;SDS011;30836;48.906;9.140;2022-08-11T08:00:56;51;;;41;;
45072;SDS011;30836;48.906;9.140;2022-08-11T08:01:58;54;;;44;;
45072;SDS011;30836;48.906;9.140;2022-08-11T08:03:00;60;;;49;;
45072;SDS011;30836;48.906;9.140;2022-08-11T08:04:01;64;;;52;;
45072;SDS011;30836;48.906;9.140;2022-08-11T08:05:05;66;;;53;;
45072;SDS011;30836;48.906;9.140;2022-08-11T08:06:16;64;;;52;;
45072;SDS011;30836;48.906;9.140;2022-08-11T08:07:20;60;;;49;;
45072;SDS011;30836;48.906;9.140;2022-08-11T08:08:21;54;;;44;;
45072;SDS011;30836;48.906;9.140;2022-08-11T08:09:23;52;;;42;;
45072;SDS011;30836;48.906;9.140;2022-08-11T08:10:36;51;;;41;;
45072;SDS011;30836;48.906;9.140;2022-08-11T08:11:37;54;;;44;;
45072;SDS011;30836;48.906;9.140;2022-08-11T08:12:39;57;;;46;;
45072;SDS011;30836;48.906;9.140;2022-08-11T08:13:42;60;;;49;;
45072;SDS011;30836;48.906;9.140;2022-08-11T08:14:42;59;;;48;;
45072;SDS011;30836;48.906;9.140;2022-08-11T08:15:43;60;;;49;;
45072;SDS011;30836;48.906;9.140;2022-08-11T08:16:45;66;;;53;;
45072;SDS011;30836;48.906;9.140;2022-08-11T08:17:46;68;;;55;;
45072;SDS011;30836;48.906;9.140;2022-08-11T08:18:47;68;;;55;;
45072;SDS011;30836;48.906;9.140;2022-08-11T08:19:48;68;;;55;;
45072;SDS011;30836;48.906;9.140;2022-08-11T08:20:49;68;;;55;;
45072;SDS011;30836;48.906;9.140;2022-08-11T08:21:51;68;;;55;;
45072;SDS011;30836;48.906;9.140;2022-08-11T08:22:54;67;;;54;;
45072;SDS011;30836;48.906;9.140;2022-08-11T08:23:56;66;;;53;;
45072;SDS011;30836;48.906;9.140;2022-08-11T08:24:58;64;;;52;;
45072;SDS011;30836;48.906;9.140;2022-08-11T08:26:03;64;;;52;;
45072;SDS011;30836;48.906;9.140;2022-08-11T08:27:05;62;;;50;;
45072;SDS011;30836;48.906;9.140;2022-08-11T08:28:09;62;;;50;;
45072;SDS011;30836;48.906;9.140;2022-08-11T08:29:10;66;;;53;;
45072;SDS011;30836;48.906;9.140;2022-08-11T08:30:13;69;;;56;;
45072;SDS011;30836;48.906;9.140;2022-08-11T08:31:14;72;;;58;;
45072;SDS011;30836;48.906;9.140;2022-08-11T08:32:15;78;;;63;;
45072;SDS011;30836;48.906;9.140;2022-08-11T08:33:21;83;;;67;;
45072;SDS011;30836;48.906;9.140;2022-08-11T08:34:22;84;;;68;;
45072;SDS011;30836;48.906;9.140;2022-08-11T08:35:23;86;;;69;;
45072;SDS011;30836;48.906;9.140;2022-08-11T08:36:24;86;;;69;;
45072;SDS011;30836;48.906;9.140;2022-08-11T08:37:25;83;;;67;;
45072;SDS011;30836;48.906;9.140;2022-08-11T08:38:26;79;;;64;;
45072;SDS011;30836;48.906;9.140;2022-08-11T08:39:27;78;;;63;;
45072;SDS011;30836;48.906;9.140;2022-08-11T08:40:28;78;;;63;;
45072;SDS011;30836;48.906;9.140;2022-08-11T08:41:31;76;;;61;;
45072;SDS011;30836;48.906;9.140;2022-08-11T08:42:37;75;;;61;;
45072;SDS011;30836;48.906;9.140;2022-08-11T08:43:38;75;;;61;;
45072;SDS011;30836;48.906;9.140;2022-08-11T08:44:45;75;;;61;;
45072;SDS011;30836;48.906;9.140;2022-08-11T08:45:46;78;;;63;;
45072;SDS011;30836;48.906;9.140;2022-08-11T08:46:50;80;;;64;;
45072;SDS011;30836;48.906;9.140;2022-08-11T08:47:58;80;;;64;;
45072;SDS011;30836;48.906;9.140;2022-08-11T08:49:01;80;;;64;;
45072;SDS011;30836;48.906;9.140;2022-08-11T08:50:10;78;;;63;;
45072;SDS011;30836;48.906;9.140;2022-08-11T08:51:12;80;;;64;;
45072;SDS011;30836;48.906;9.140;2022-08-11T08:52:17;77;;;62;;
45072;SDS011;30836;48.906;9.140;2022-08-11T08:53:24;74;;;60;;
45072;SDS011;30836;48.906;9.140;2022-08-11T08:54:34;72;;;58;;
45072;SDS011;30836;48.906;9.140;2022-08-11T08:55:35;69;;;56;;
45072;SDS011;30836;48.906;9.140;2022-08-11T08:56:38;68;;;55;;
45072;SDS011;30836;48.906;9.140;2022-08-11T08:57:40;68;;;55;;
45072;SDS011;30836;48.906;9.140;2022-08-11T08:58:45;68;;;55;;
45072;SDS011;30836;48.906;9.140;2022-08-11T08:59:48;68;;;55;;
45072;SDS011;30836;48.906;9.140;2022-08-11T09:00:51;72;;;58;;
45072;SDS011;30836;48.906;9.140;2022-08-11T09:02:01;73;;;59;;
45072;SDS011;30836;48.906;9.140;2022-08-11T09:03:02;75;;;61;;
45072;SDS011;30836;48.906;9.140;2022-08-11T09:04:06;82;;;66;;
45072;SDS011;30836;48.906;9.140;2022-08-11T09:05:08;87;;;70;;
45072;SDS011;30836;48.906;9.140;2022-08-11T09:06:09;88;;;71;;
45072;SDS011;30836;48.906;9.140;2022-08-11T09:07:16;83;;;67;;
45072;SDS011;30836;48.906;9.140;2022-08-11T09:08:17;78;;;63;;
45072;SDS011;30836;48.906;9.140;2022-08-11T09:09:19;75;;;61;;
45072;SDS011;30836;48.906;9.140;2022-08-11T09:10:21;75;;;61;;
45072;SDS011;30836;48.906;9.140;2022-08-11T09:11:22;76;;;61;;
45072;SDS011;30836;48.906;9.140;2022-08-11T09:12:29;78;;;63;;
45072;SDS011;30836;48.906;9.140;2022-08-11T09:13:32;76;;;61;;
45072;SDS011;30836;48.906;9.140;2022-08-11T09:14:37;74;;;60;;
45072;SDS011;30836;48.906;9.140;2022-08-11T09:15:39;73;;;59;;
45072;SDS011;30836;48.906;9.140;2022-08-11T09:16:40;74;;;60;;
45072;SDS011;30836;48.906;9.140;2022-08-11T09:17:47;80;;;64;;
45072;SDS011;30836;48.906;9.140;2022-08-11T09:18:48;85;;;69;;
45072;SDS011;30836;48.906;9.140;2022-08-11T09:19:53;98;;;79;;
45072;SDS011;30836;48.906;9.140;2022-08-11T09:20:54;113;;;91;;
45072;SDS011;30836;48.906;9.140;2022-08-11T09:21:55;122;;;99;;
45072;SDS011;30836;48.906;9.140;2022-08-11T09:22:57;134;;;108;;
45072;SDS011;30836;48.906;9.140;2022-08-11T09:23:58;139;;;112;;
45072;SDS011;30836;48.906;9.140;2022-08-11T09:25:00;131;;;106;;
45072;SDS011;30836;48.906;9.140;2022-08-11T09:26:01;125;;;101;;
45072;SDS011;30836;48.906;9.140;2022-08-11T09:27:05;125;;;101;;
45072;SDS011;30836;48.906;9.140;2022-08-11T09:28:10;123;;;100;;
45072;SDS011;30836;48.906;9.140;2022-08-11T09:29:12;125;;;101;;
45072;SDS011;30836;48.906;9.140;2022-08-11T09:30:12;124;;;100;;
45072;SDS011;30836;48.906;9.140;2022-08-11T09:31:13;121;;;98;;
45072;SDS011;30836;48.906;9.140;2022-08-11T09:32:18;116;;;94;;
45072;SDS011;30836;48.906;9.140;2022-08-11T09:33:21;116;;;94;;
45072;SDS011;30836;48.906;9.140;2022-08-11T09:34:23;121;;;98;;
45072;SDS011;30836;48.906;9.140;2022-08-11T09:35:26;121;;;98;;
45072;SDS011;30836;48.906;9.140;2022-08-11T09:36:27;126;;;102;;
45072;SDS011;30836;48.906;9.140;2022-08-11T09:37:28;120;;;97;;
45072;SDS011;30836;48.906;9.140;2022-08-11T09:38:29;109;;;88;;
45072;SDS011;30836;48.906;9.140;2022-08-11T09:39:31;101;;;82;;
45072;SDS011;30836;48.906;9.140;2022-08-11T09:39:45;99;;;80;;
45072;SDS011;30836;48.906;9.140;2022-08-11T09:40:47;88;;;71;;
45072;SDS011;30836;48.906;9.140;2022-08-11T09:41:49;76;;;61;;
45072;SDS011;30836;48.906;9.140;2022-08-11T09:42:50;72;;;58;;
45072;SDS011;30836;48.906;9.140;2022-08-11T09:43:51;83;;;67;;
45072;SDS011;30836;48.906;9.140;2022-08-11T09:44:52;125;;;101;;
45072;SDS011;30836;48.906;9.140;2022-08-11T09:45:54;156;;;125;;
45072;SDS011;30836;48.906;9.140;2022-08-11T09:46:56;169;;;135;;
45072;SDS011;30836;48.906;9.140;2022-08-11T09:47:57;166;;;133;;
45072;SDS011;30836;48.906;9.140;2022-08-11T09:49:00;150;;;120;;
45072;SDS011;30836;48.906;9.140;2022-08-11T09:50:01;134;;;108;;
45072;SDS011;30836;48.906;9.140;2022-08-11T09:51:03;125;;;101;;
45072;SDS011;30836;48.906;9.140;2022-08-11T09:52:05;114;;;92;;
45072;SDS011;30836;48.906;9.140;2022-08-11T09:53:06;102;;;82;;
45072;SDS011;30836;48.906;9.140;2022-08-11T09:54:06;91;;;74;;
45072;SDS011;30836;48.906;9.140;2022-08-11T09:55:07;89;;;72;;
45072;SDS011;30836;48.906;9.140;2022-08-11T09:56:16;87;;;70;;
45072;SDS011;30836;48.906;9.140;2022-08-11T09:57:21;97;;;78;;
45072;SDS011;30836;48.906;9.140;2022-08-11T09:58:22;109;;;88;;
45072;SDS011;30836;48.906;9.140;2022-08-11T09:59:23;120;;;97;;
45072;SDS011;30836;48.906;9.140;2022-08-11T10:00:30;131;;;106;;
45072;SDS011;30836;48.906;9.140;2022-08-11T10:02:45;137;;;111;;
45072;SDS011;30836;48.906;9.140;2022-08-11T10:03:46;134;;;108;;
45072;SDS011;30836;48.906;9.140;2022-08-11T10:04:48;130;;;105;;
45072;SDS011;30836;48.906;9.140;2022-08-11T10:05:57;125;;;101;;
45072;SDS011;30836;48.906;9.140;2022-08-11T10:07:00;124;;;100;;
45072;SDS011;30836;48.906;9.140;2022-08-11T10:08:03;124;;;100;;
45072;SDS011;30836;48.906;9.140;2022-08-11T10:09:05;121;;;98;;
45072;SDS011;30836;48.906;9.140;2022-08-11T10:10:06;118;;;95;;
45072;SDS011;30836;48.906;9.140;2022-08-11T10:11:10;123;;;100;;
45072;SDS011;30836;48.906;9.140;2022-08-11T10:12:13;125;;;101;;
45072;SDS011;30836;48.906;9.140;2022-08-11T10:13:19;129;;;104;;
45072;SDS011;30836;48.906;9.140;2022-08-11T10:14:21;134;;;108;;
45072;SDS011;30836;48.906;9.140;2022-08-11T10:15:34;129;;;104;;
45072;SDS011;30836;48.906;9.140;2022-08-11T10:16:39;121;;;98;;
45072;SDS011;30836;48.906;9.140;2022-08-11T10:17:46;103;;;83;;
45072;SDS011;30836;48.906;9.140;2022-08-11T10:18:49;91;;;74;;
45072;SDS011;30836;48.906;9.140;2022-08-11T10:19:51;79;;;64;;
45072;SDS011;30836;48.906;9.140;2022-08-11T10:20:58;75;;;61;;
45072;SDS011;30836;48.906;9.140;2022-08-11T10:22:00;82;;;66;;
45072;SDS011;30836;48.906;9.140;2022-08-11T10:23:02;89;;;72;;
45072;SDS011;30836;48.906;9.140;2022-08-11T10:24:04;92;;;74;;
45072;SDS011;30836;48.906;9.140;2022-08-11T10:25:05;101;;;82;;
45072;SDS011;30836;48.906;9.140;2022-08-11T10:26:07;105;;;85;;
45072;SDS011;30836;48.906;9.140;2022-08-11T10:27:08;111;;;90;;
45072;SDS011;30836;48.906;9.140;2022-08-11T10:28:09;108;;;87;;
45072;SDS011;30836;48.906;9.140;2022-08-11T10:30:25;111;;;90;;
45072;SDS011;30836;48.906;9.140;2022-08-11T10:31:26;118;;;95;;
45072;SDS011;30836;48.906;9.140;2022-08-11T10:32:28;120;;;97;;
45072;SDS011;30836;48.906;9.140;2022-08-11T10:33:30;128;;;103;;
45072;SDS011;30836;48.906;9.140;2022-08-11T10:34:31;134;;;108;;
45072;SDS011;30836;48.906;9.140;2022-08-11T10:35:32;136;;;110;;
45072;SDS011;30836;48.906;9.140;2022-08-11T10:36:35;131;;;106;;
45072;SDS011;30836;48.906;9.140;2022-08-11T10:37:37;136;;;110;;
45072;SDS011;30836;48.906;9.140;2022-08-11T10:38:38;135;;;109;;
45072;SDS011;30836;48.906;9.140;2022-08-11T10:39:39;136;;;110;;